createdAt,value
2022-12-18T00:01:11.882Z,1014.9
2022-12-18T00:03:40.683Z,1014.8
2022-12-18T00:06:08.354Z,1014.6
2022-12-18T00:09:13.680Z,1014.6
2022-12-18T00:11:41.913Z,1014.6
2022-12-18T00:14:10.184Z,1014.6
2022-12-18T00:17:15.480Z,1014.6
2022-12-18T00:19:43.702Z,1014.6
2022-12-18T00:22:11.977Z,1014.6
2022-12-18T00:24:40.225Z,1014.7
2022-12-18T00:27:08.472Z,1014.7
2022-12-18T00:30:13.785Z,1014.7
2022-12-18T00:32:42.016Z,1014.8
2022-12-18T00:35:10.236Z,1014.8
2022-12-18T00:37:38.519Z,1014.8
2022-12-18T00:39:58.601Z,1014.8
2022-12-18T00:43:03.858Z,1014.8
2022-12-18T00:46:09.267Z,1014.6
2022-12-18T00:49:14.498Z,1014.7
2022-12-18T00:51:42.738Z,1014.7
2022-12-18T00:54:10.984Z,1014.7
2022-12-18T00:57:16.284Z,1014.7
2022-12-18T00:59:44.541Z,1014.7
2022-12-18T01:02:12.924Z,1014.7
2022-12-18T01:04:41.050Z,1014.6
2022-12-18T01:07:46.355Z,1014.9
2022-12-18T01:10:14.595Z,1014.8
2022-12-18T01:12:42.845Z,1014.8
2022-12-18T01:15:11.067Z,1014.7
2022-12-18T01:18:16.345Z,1014.7
2022-12-18T01:20:44.615Z,1014.6
2022-12-18T01:23:12.887Z,1014.5
2022-12-18T01:25:41.093Z,1014.5
2022-12-18T01:28:09.388Z,1014.5
2022-12-18T01:31:51.808Z,1014.6
2022-12-18T01:34:57.038Z,1014.6
2022-12-18T01:38:02.360Z,1014.6
2022-12-18T01:41:07.685Z,1014.9
2022-12-18T01:44:12.980Z,1014.8
2022-12-18T01:46:41.218Z,1014.8
2022-12-18T01:49:38.354Z,1014.8
2022-12-18T01:52:06.611Z,1014.7
2022-12-18T01:55:11.915Z,1014.7
2022-12-18T01:57:40.181Z,1014.7
2022-12-18T02:00:08.380Z,1014.7
2022-12-18T02:05:04.933Z,1014.7
2022-12-18T02:10:38.450Z,1014.8
2022-12-18T02:15:34.932Z,1014.9
2022-12-18T02:19:17.280Z,1014.8
2022-12-18T02:21:45.568Z,1014.8
2022-12-18T02:24:13.813Z,1014.9
2022-12-18T02:26:42.053Z,1014.9
2022-12-18T02:29:10.280Z,1014.8
2022-12-18T02:32:15.600Z,1014.8
2022-12-18T02:34:43.865Z,1014.8
2022-12-18T02:37:12.113Z,1014.8
2022-12-18T02:39:40.328Z,1014.7
2022-12-18T02:42:08.578Z,1014.9
2022-12-18T02:45:13.893Z,1014.9
2022-12-18T02:47:42.139Z,1014.9
2022-12-18T02:50:10.402Z,1014.9
2022-12-18T02:53:15.693Z,1014.8
2022-12-18T02:55:43.939Z,1014.8
2022-12-18T02:58:12.228Z,1014.6
2022-12-18T03:00:32.259Z,1014.6
2022-12-18T03:03:00.620Z,1014.6
2022-12-18T03:06:05.790Z,1014.6
2022-12-18T03:09:11.150Z,1014.6
2022-12-18T03:12:53.469Z,1014.6
2022-12-18T03:15:58.805Z,1014.7
2022-12-18T03:19:04.119Z,1014.7
2022-12-18T03:22:09.401Z,1014.8
2022-12-18T03:25:14.719Z,1014.7
2022-12-18T03:27:42.956Z,1014.7
2022-12-18T03:30:11.257Z,1014.7
2022-12-18T03:33:16.550Z,1014.5
2022-12-18T03:35:44.767Z,1014.6
2022-12-18T03:38:13.018Z,1014.7
2022-12-18T03:40:41.251Z,1014.7
2022-12-18T03:43:09.517Z,1014.7
2022-12-18T03:46:14.940Z,1014.7
2022-12-18T03:48:43.092Z,1014.7
2022-12-18T03:51:11.300Z,1014.6
2022-12-18T03:54:16.668Z,1014.6
2022-12-18T03:56:44.867Z,1014.6
2022-12-18T03:59:13.134Z,1014.7
2022-12-18T04:01:33.260Z,1014.7
2022-12-18T04:04:01.546Z,1014.7
2022-12-18T04:07:06.739Z,1014.6
2022-12-18T04:10:12.017Z,1014.6
2022-12-18T04:12:40.290Z,1014.6
2022-12-18T04:15:08.561Z,1014.6
2022-12-18T04:18:13.859Z,1014.6
2022-12-18T04:20:42.090Z,1014.6
2022-12-18T04:23:10.341Z,1014.6
2022-12-18T04:26:15.635Z,1014.7
2022-12-18T04:28:43.907Z,1014.7
2022-12-18T04:31:12.252Z,1014.7
2022-12-18T04:33:40.566Z,1014.6
2022-12-18T04:36:08.657Z,1014.7
2022-12-18T04:39:13.971Z,1014.6
2022-12-18T04:41:42.202Z,1014.6
2022-12-18T04:44:10.413Z,1014.7
2022-12-18T04:47:15.769Z,1014.7
2022-12-18T04:49:44.028Z,1014.6
2022-12-18T04:52:12.249Z,1014.7
2022-12-18T04:54:40.508Z,1014.7
2022-12-18T04:57:08.760Z,1014.6
2022-12-18T05:00:05.865Z,1014.6
2022-12-18T05:03:11.256Z,1014.6
2022-12-18T05:05:39.449Z,1014.6
2022-12-18T05:08:07.659Z,1014.7
2022-12-18T05:11:12.958Z,1014.7
2022-12-18T05:13:41.436Z,1014.7
2022-12-18T05:16:09.515Z,1014.7
2022-12-18T05:19:14.749Z,1014.7
2022-12-18T05:21:43.017Z,1014.7
2022-12-18T05:24:11.314Z,1014.7
2022-12-18T05:27:16.555Z,1014.7
2022-12-18T05:29:44.811Z,1014.7
2022-12-18T05:32:13.090Z,1014.7
2022-12-18T05:34:41.291Z,1014.7
2022-12-18T05:37:09.572Z,1014.6
2022-12-18T05:40:14.864Z,1014.6
2022-12-18T05:42:43.116Z,1014.6
2022-12-18T05:45:11.346Z,1014.6
2022-12-18T05:48:16.668Z,1014.7
2022-12-18T05:50:44.875Z,1014.7
2022-12-18T05:53:13.183Z,1014.6
2022-12-18T05:55:41.418Z,1014.6
2022-12-18T05:58:09.627Z,1014.7
2022-12-18T06:00:37.877Z,1014.8
2022-12-18T06:02:58.030Z,1014.8
2022-12-18T06:06:03.306Z,1014.9
2022-12-18T06:09:08.577Z,1015
2022-12-18T06:12:13.923Z,1015
2022-12-18T06:14:42.121Z,1014.9
2022-12-18T06:17:10.413Z,1015
2022-12-18T06:20:15.703Z,1015
2022-12-18T06:22:43.941Z,1015
2022-12-18T06:25:12.171Z,1015
2022-12-18T06:27:40.447Z,1015
2022-12-18T06:30:08.671Z,1015
2022-12-18T06:33:13.971Z,1015
2022-12-18T06:35:42.219Z,1015
2022-12-18T06:38:10.488Z,1015.1
2022-12-18T06:41:15.754Z,1015.2
2022-12-18T06:43:44.031Z,1015.2
2022-12-18T06:46:12.300Z,1015.2
2022-12-18T06:48:40.522Z,1015.2
2022-12-18T06:51:08.779Z,1015.2
2022-12-18T06:54:14.100Z,1015.2
2022-12-18T06:56:42.321Z,1015.2
2022-12-18T06:59:10.600Z,1015.3
2022-12-18T07:03:58.945Z,1015.4
2022-12-18T07:07:04.207Z,1015.3
2022-12-18T07:10:09.514Z,1015.3
2022-12-18T07:13:14.822Z,1015.4
2022-12-18T07:15:43.168Z,1015.4
2022-12-18T07:18:11.299Z,1015.3
2022-12-18T07:21:16.633Z,1015.4
2022-12-18T07:23:44.907Z,1015.4
2022-12-18T07:26:13.139Z,1015.4
2022-12-18T07:28:41.356Z,1015.4
2022-12-18T07:31:09.597Z,1015.4
2022-12-18T07:34:14.936Z,1015.4
2022-12-18T07:36:43.308Z,1015.5
2022-12-18T07:39:11.422Z,1015.6
2022-12-18T07:42:16.732Z,1015.6
2022-12-18T07:44:44.983Z,1015.6
2022-12-18T07:47:13.194Z,1015.7
2022-12-18T07:49:41.479Z,1015.7
2022-12-18T07:52:09.681Z,1015.7
2022-12-18T07:55:15.035Z,1015.7
2022-12-18T07:57:51.357Z,1015.7
2022-12-18T08:00:11.521Z,1015.8
2022-12-18T08:02:31.597Z,1015.8
2022-12-18T08:04:59.825Z,1015.7
2022-12-18T08:08:05.137Z,1015.8
2022-12-18T08:11:10.424Z,1015.8
2022-12-18T08:14:15.831Z,1015.7
2022-12-18T08:16:44.101Z,1015.7
2022-12-18T08:19:12.244Z,1015.8
2022-12-18T08:21:40.444Z,1015.7
2022-12-18T08:24:08.736Z,1015.7
2022-12-18T08:27:28.740Z,1015.7
2022-12-18T08:29:42.271Z,1015.7
2022-12-18T08:32:10.551Z,1015.7
2022-12-18T08:35:18.691Z,1015.7
2022-12-18T08:37:44.080Z,1015.6
2022-12-18T08:40:12.315Z,1015.5
2022-12-18T08:42:40.579Z,1015.5
2022-12-18T08:45:08.839Z,1015.3
2022-12-18T08:48:17.860Z,1015.5
2022-12-18T08:50:42.398Z,1015.5
2022-12-18T08:53:10.740Z,1015.5
2022-12-18T08:56:15.949Z,1015.4
2022-12-18T08:58:44.176Z,1015.3
2022-12-18T09:01:12.466Z,1015.4
2022-12-18T09:04:47.085Z,1015.3
2022-12-18T09:07:14.915Z,1015.4
2022-12-18T09:09:43.144Z,1015.4
2022-12-18T09:12:11.327Z,1015.3
2022-12-18T09:14:39.599Z,1015.4
2022-12-18T09:17:07.940Z,1015.4
2022-12-18T09:20:13.182Z,1015.4
2022-12-18T09:22:41.435Z,1015.4
2022-12-18T09:25:09.669Z,1015.5
2022-12-18T09:28:14.988Z,1015.5
2022-12-18T09:30:43.251Z,1015.5
2022-12-18T09:33:11.457Z,1015.6
2022-12-18T09:35:39.703Z,1015.6
2022-12-18T09:38:07.921Z,1015.6
2022-12-18T09:41:13.294Z,1015.6
2022-12-18T09:43:41.533Z,1015.7
2022-12-18T09:46:09.874Z,1015.8
2022-12-18T09:49:15.064Z,1015.7
2022-12-18T09:51:43.316Z,1015.7
2022-12-18T09:54:11.560Z,1015.7
2022-12-18T09:56:39.821Z,1015.7
2022-12-18T09:59:08.062Z,1015.7
2022-12-18T10:02:13.400Z,1015.7
2022-12-18T10:04:33.424Z,1015.7
2022-12-18T10:07:05.737Z,1015.7
2022-12-18T10:10:06.946Z,1015.8
2022-12-18T10:13:12.261Z,1015.8
2022-12-18T10:15:40.523Z,1015.8
2022-12-18T10:18:08.750Z,1015.7
2022-12-18T10:21:14.053Z,1015.7
2022-12-18T10:23:46.514Z,1015.7
2022-12-18T10:26:10.554Z,1015.6
2022-12-18T10:29:15.918Z,1015.6
2022-12-18T10:32:58.220Z,1015.6
2022-12-18T10:36:03.569Z,1015.6
2022-12-18T10:39:08.861Z,1015.3
2022-12-18T10:42:14.177Z,1015.4
2022-12-18T10:44:42.432Z,1015.4
2022-12-18T10:47:12.014Z,1015.3
2022-12-18T10:50:16.005Z,1015.4
2022-12-18T10:52:45.328Z,1015.4
2022-12-18T10:55:12.476Z,1015.4
2022-12-18T10:57:40.727Z,1015.4
2022-12-18T11:00:08.973Z,1015.4
2022-12-18T11:02:37.429Z,1015.6
2022-12-18T11:04:57.263Z,1015.7
2022-12-18T11:08:02.571Z,1015.7
2022-12-18T11:11:07.944Z,1015.6
2022-12-18T11:14:13.207Z,1015.6
2022-12-18T11:16:43.896Z,1015.6
2022-12-18T11:19:09.734Z,1015.5
2022-12-18T11:22:15.000Z,1015.6
2022-12-18T11:24:43.273Z,1015.5
2022-12-18T11:27:11.467Z,1015.5
2022-12-18T11:29:44.900Z,1015.4
2022-12-18T11:32:07.988Z,1015.3
2022-12-18T11:35:13.352Z,1015.3
2022-12-18T11:37:41.552Z,1015.3
2022-12-18T11:40:09.809Z,1015.4
2022-12-18T11:43:15.091Z,1015.3
2022-12-18T11:45:50.588Z,1015.3
2022-12-18T11:48:11.622Z,1015.2
2022-12-18T11:50:39.864Z,1015.2
2022-12-18T11:53:08.112Z,1015.3
2022-12-18T11:56:13.432Z,1015.2
2022-12-18T11:58:41.908Z,1015.1
2022-12-18T12:01:09.896Z,1015
2022-12-18T12:04:07.099Z,1015
2022-12-18T12:07:12.336Z,1015
2022-12-18T12:09:40.572Z,1015
2022-12-18T12:12:08.828Z,1014.9
2022-12-18T12:15:14.132Z,1015
2022-12-18T12:17:42.362Z,1015
2022-12-18T12:20:10.612Z,1015.1
2022-12-18T12:23:15.903Z,1015.1
2022-12-18T12:25:44.196Z,1015
2022-12-18T12:28:12.450Z,1015
2022-12-18T12:30:40.669Z,1015
2022-12-18T12:33:08.902Z,1014.9
2022-12-18T12:36:14.215Z,1015
2022-12-18T12:38:45.687Z,1015
2022-12-18T12:41:10.717Z,1015
2022-12-18T12:44:16.033Z,1015
2022-12-18T12:46:44.260Z,1014.9
2022-12-18T12:49:12.532Z,1014.8
2022-12-18T12:51:40.742Z,1014.8
2022-12-18T12:54:09.001Z,1014.6
2022-12-18T12:57:14.330Z,1014.7
2022-12-18T12:59:42.554Z,1014.7
2022-12-18T13:02:10.885Z,1014.7
2022-12-18T13:04:30.884Z,1014.7
2022-12-18T13:06:59.126Z,1014.6
2022-12-18T13:10:04.456Z,1014.5
2022-12-18T13:13:10.534Z,1014.5
2022-12-18T13:16:15.054Z,1014.5
2022-12-18T13:18:43.655Z,1014.5
2022-12-18T13:21:11.571Z,1014.4
2022-12-18T13:23:40.131Z,1014.4
2022-12-18T13:26:08.070Z,1014.4
2022-12-18T13:29:13.377Z,1014.4
2022-12-18T13:31:41.759Z,1014.4
2022-12-18T13:34:25.507Z,1014.4
2022-12-18T13:37:15.216Z,1014.3
2022-12-18T13:39:43.367Z,1014.3
2022-12-18T13:42:11.645Z,1014.3
2022-12-18T13:44:41.046Z,1014.3
2022-12-18T13:47:08.150Z,1014.2
2022-12-18T13:50:13.479Z,1014.2
2022-12-18T13:52:41.681Z,1014.2
2022-12-18T13:55:09.951Z,1014.3
2022-12-18T13:58:15.263Z,1014.3
2022-12-18T14:03:12.158Z,1014.2
2022-12-18T14:05:31.801Z,1014.2
2022-12-18T14:08:00.085Z,1014.2
2022-12-18T14:11:05.411Z,1014.1
2022-12-18T14:14:10.673Z,1014.1
2022-12-18T14:17:15.987Z,1014.1
2022-12-18T14:19:44.201Z,1014.2
2022-12-18T14:22:12.479Z,1014.2
2022-12-18T14:24:40.736Z,1014.1
2022-12-18T14:27:08.922Z,1014.1
2022-12-18T14:30:14.319Z,1014.2
2022-12-18T14:32:42.569Z,1014.2
2022-12-18T14:35:10.776Z,1014.2
2022-12-18T14:37:39.041Z,1014.2
2022-12-18T14:40:10.383Z,1014.2
2022-12-18T14:43:12.606Z,1014.1
2022-12-18T14:45:42.470Z,1014.2
2022-12-18T14:48:09.086Z,1014
2022-12-18T14:51:14.366Z,1014.1
2022-12-18T14:53:43.702Z,1014.1
2022-12-18T14:56:10.849Z,1014.1
2022-12-18T14:59:20.746Z,1014.1
2022-12-18T15:01:44.514Z,1014.1
2022-12-18T15:04:04.469Z,1014
2022-12-18T15:07:09.807Z,1014
2022-12-18T15:10:15.100Z,1014
2022-12-18T15:12:59.134Z,1014
2022-12-18T15:15:11.569Z,1013.9
2022-12-18T15:17:39.839Z,1014
2022-12-18T15:20:08.097Z,1013.9
2022-12-18T15:23:13.395Z,1013.9
2022-12-18T15:25:41.656Z,1014
2022-12-18T15:28:09.910Z,1014
2022-12-18T15:31:16.230Z,1014
2022-12-18T15:33:43.826Z,1013.9
2022-12-18T15:36:48.763Z,1013.9
2022-12-18T15:39:54.164Z,1013.9
2022-12-18T15:42:59.393Z,1013.9
2022-12-18T15:46:04.750Z,1014
2022-12-18T15:49:10.041Z,1014
2022-12-18T15:52:15.278Z,1013.9
2022-12-18T15:54:43.576Z,1013.9
2022-12-18T15:57:11.827Z,1014
2022-12-18T16:00:17.147Z,1014
2022-12-18T16:02:45.567Z,1014
2022-12-18T16:05:05.387Z,1014
2022-12-18T16:08:10.714Z,1014
2022-12-18T16:11:16.036Z,1013.9
2022-12-18T16:13:44.342Z,1014
2022-12-18T16:16:12.541Z,1014
2022-12-18T16:18:40.774Z,1013.9
2022-12-18T16:21:09.056Z,1013.8
2022-12-18T16:24:14.345Z,1013.9
2022-12-18T16:26:42.575Z,1013.8
2022-12-18T16:29:47.917Z,1013.9
2022-12-18T16:32:16.135Z,1013.7
2022-12-18T16:34:44.377Z,1013.7
2022-12-18T16:37:12.681Z,1013.7
2022-12-18T16:39:40.871Z,1013.7
2022-12-18T16:42:10.095Z,1013.7
2022-12-18T16:45:14.442Z,1013.8
2022-12-18T16:47:42.700Z,1013.8
2022-12-18T16:50:10.915Z,1013.7
2022-12-18T16:53:16.232Z,1013.7
2022-12-18T16:55:44.494Z,1013.7
2022-12-18T16:58:12.730Z,1013.6
2022-12-18T17:00:40.979Z,1013.9
2022-12-18T17:03:46.671Z,1013.6
2022-12-18T17:06:06.308Z,1013.6
2022-12-18T17:09:11.667Z,1013.6
2022-12-18T17:11:39.921Z,1013.5
2022-12-18T17:14:08.152Z,1013.5
2022-12-18T17:17:22.139Z,1013.6
2022-12-18T17:19:41.712Z,1013.5
2022-12-18T17:22:09.951Z,1013.5
2022-12-18T17:25:15.289Z,1013.5
2022-12-18T17:27:43.495Z,1013.5
2022-12-18T17:30:11.777Z,1013.6
2022-12-18T17:32:39.988Z,1013.6
2022-12-18T17:35:45.289Z,1013.7
2022-12-18T17:38:13.547Z,1013.5
2022-12-18T17:40:46.015Z,1013.5
2022-12-18T17:43:10.073Z,1013.5
2022-12-18T17:46:15.428Z,1013.5
2022-12-18T17:48:43.579Z,1013.5
2022-12-18T17:51:11.872Z,1013.5
2022-12-18T17:53:40.585Z,1013.4
2022-12-18T17:56:08.355Z,1013.3
2022-12-18T17:59:13.672Z,1013.3
2022-12-18T18:01:44.682Z,1013.4
2022-12-18T18:04:10.270Z,1013.4
2022-12-18T18:07:07.283Z,1013.4
2022-12-18T18:10:12.596Z,1013.4
2022-12-18T18:12:40.862Z,1013.4
2022-12-18T18:15:09.081Z,1013.1
2022-12-18T18:18:14.642Z,1013.4
2022-12-18T18:20:42.633Z,1013.4
2022-12-18T18:23:10.872Z,1013.3
2022-12-18T18:25:39.100Z,1013.4
2022-12-18T18:28:07.355Z,1013.4
2022-12-18T18:31:12.777Z,1013.4
2022-12-18T18:33:41.246Z,1013.3
2022-12-18T18:36:09.166Z,1013.3
2022-12-18T18:39:14.484Z,1013.4
2022-12-18T18:41:43.872Z,1013.3
2022-12-18T18:44:11.010Z,1013.2
2022-12-18T18:47:16.289Z,1013.2
2022-12-18T18:49:44.503Z,1013.1
2022-12-18T18:52:12.812Z,1013.2
2022-12-18T18:54:52.144Z,1013.7
2022-12-18T18:57:20.183Z,1013.1
2022-12-18T19:00:51.646Z,1013
2022-12-18T19:03:56.971Z,1013
2022-12-18T19:06:16.996Z,1013
2022-12-18T19:08:45.276Z,1013
2022-12-18T19:11:13.475Z,1013
2022-12-18T19:13:42.022Z,1013
2022-12-18T19:16:10.083Z,1013
2022-12-18T19:19:15.307Z,1013
2022-12-18T19:21:43.564Z,1012.9
2022-12-18T19:24:11.788Z,1012.9
2022-12-18T19:26:40.034Z,1012.9
2022-12-18T19:29:08.289Z,1012.9
2022-12-18T19:32:13.669Z,1012.9
2022-12-18T19:34:41.859Z,1012.9
2022-12-18T19:37:10.110Z,1012.9
2022-12-18T19:40:15.416Z,1012.8
2022-12-18T19:42:43.643Z,1012.8
2022-12-18T19:45:11.893Z,1012.9
2022-12-18T19:47:40.184Z,1012.8
2022-12-18T19:50:08.470Z,1012.8
2022-12-18T19:53:13.712Z,1012.8
2022-12-18T19:55:41.928Z,1012.7
2022-12-18T19:58:10.186Z,1012.7
2022-12-18T20:01:16.600Z,1012.7
2022-12-18T20:03:44.621Z,1012.7
2022-12-18T20:06:03.850Z,1012.8
2022-12-18T20:09:09.154Z,1012.8
2022-12-18T20:12:14.450Z,1012.7
2022-12-18T20:14:42.689Z,1012.8
2022-12-18T20:17:10.913Z,1012.8
2022-12-18T20:19:39.171Z,1012.8
2022-12-18T20:22:07.411Z,1012.6
2022-12-18T20:25:12.741Z,1012.6
2022-12-18T20:27:40.962Z,1013
2022-12-18T20:30:09.224Z,1012.6
2022-12-18T20:33:52.124Z,1012.5
2022-12-18T20:36:56.866Z,1012.4
2022-12-18T20:40:02.236Z,1012.4
2022-12-18T20:43:07.908Z,1012.5
2022-12-18T20:46:12.917Z,1012.5
2022-12-18T20:48:41.105Z,1012.4
2022-12-18T20:51:09.345Z,1012.5
2022-12-18T20:54:51.687Z,1012.4
2022-12-18T20:57:57.018Z,1012.4
2022-12-18T21:01:02.328Z,1012.4
2022-12-18T21:04:07.725Z,1012.5
2022-12-18T21:07:04.752Z,1012.5
2022-12-18T21:10:10.048Z,1012.4
2022-12-18T21:13:15.373Z,1012.4
2022-12-18T21:15:43.597Z,1012.3
2022-12-18T21:18:11.856Z,1012.3
2022-12-18T21:20:40.078Z,1012.4
2022-12-18T21:23:08.576Z,1012.3
2022-12-18T21:26:13.661Z,1012.3
2022-12-18T21:28:41.880Z,1012.2
2022-12-18T21:31:10.179Z,1012.2
2022-12-18T21:34:15.482Z,1012.2
2022-12-18T21:36:43.705Z,1012.3
2022-12-18T21:39:11.935Z,1012.3
2022-12-18T21:41:42.249Z,1012.3
2022-12-18T21:44:08.467Z,1012.3
2022-12-18T21:47:16.885Z,1012.5
2022-12-18T21:49:42.021Z,1012.5
2022-12-18T21:52:10.244Z,1012.6
2022-12-18T21:54:38.517Z,1012.6
2022-12-18T21:57:06.766Z,1012.6
2022-12-18T22:00:12.484Z,1012.5
2022-12-18T22:02:40.468Z,1012.5
2022-12-18T22:05:08.603Z,1012.5
2022-12-18T22:08:13.866Z,1012.5
2022-12-18T22:10:33.901Z,1012.4
2022-12-18T22:13:02.141Z,1012.4
2022-12-18T22:16:07.510Z,1012.4
2022-12-18T22:19:12.750Z,1012.4
2022-12-18T22:21:41.044Z,1012.4
2022-12-18T22:24:09.264Z,1012.4
2022-12-18T22:27:51.631Z,1012.5
2022-12-18T22:30:59.390Z,1012.4
2022-12-18T22:34:02.266Z,1012.5
2022-12-18T22:37:07.582Z,1012.5
2022-12-18T22:40:13.093Z,1012.5
2022-12-18T22:42:41.091Z,1012.5
2022-12-18T22:45:09.347Z,1012.5
2022-12-18T22:48:14.698Z,1012.5
2022-12-18T22:50:42.954Z,1012.4
2022-12-18T22:53:11.206Z,1012.4
2022-12-18T22:55:39.443Z,1012.4
2022-12-18T22:58:07.727Z,1012.4
2022-12-18T23:01:13.013Z,1012.4
2022-12-18T23:03:41.277Z,1012.4
2022-12-18T23:06:09.491Z,1012.4
2022-12-18T23:09:14.778Z,1012.4
2022-12-18T23:11:43.034Z,1012.4
2022-12-18T23:14:11.266Z,1012.5
2022-12-18T23:16:39.547Z,1012.5
2022-12-18T23:18:59.586Z,1012.4
2022-12-18T23:22:08.645Z,1012.4
2022-12-18T23:25:10.231Z,1012.5
2022-12-18T23:28:15.522Z,1012.4
2022-12-18T23:30:43.781Z,1012.4
2022-12-18T23:33:12.019Z,1012.4
2022-12-18T23:35:40.232Z,1012.4
2022-12-18T23:38:08.481Z,1012.3
2022-12-18T23:41:13.829Z,1012.3
2022-12-18T23:43:42.032Z,1012.3
2022-12-18T23:48:01.505Z,1012.2
2022-12-18T23:51:06.805Z,1012.1
2022-12-18T23:54:12.129Z,1012.2
2022-12-18T23:56:40.380Z,1012.1
2022-12-18T23:59:08.630Z,1012.1
